Terminal Aerodrome Forecast
Issued by NWS

Current Version | Previous Version | Text Only | Print | Product List | Glossary On
Versions: 1 2 3 4 5 6 7 8 9 10 11 12 13 14 15 16 17 18 19 20 21 22 23 24 25 26 27 28 29 30 31
000
FTUS41 KOKX 282331
TAFTEB
TAF
KTEB 282331Z 2900/2924 22008KT P6SM SCT040 BKN120
     FM290100 18005KT P6SM VCSH SCT030 BKN090
     FM290400 VRB03KT 4SM SHRA SCT020 OVC050
     FM290600 10006KT 4SM SHRA SCT006 OVC015
      TEMPO 2906/2909 2SM TSRA OVC006CB
     FM290900 07006KT 2SM +SHRA BR FEW006 OVC012 PROB30 2909/2913
      1SM +TSRA OVC006CB
     FM291500 34010KT 5SM -RA BR OVC015
     FM291900 36010KT P6SM BKN040=

USA.gov is the U.S. government's official web portal to all federal, state and local government web resources and services.